createdAt,value
2018-08-13T00:01:05.803Z,99533.93
2018-08-13T00:03:34.572Z,99534.21
2018-08-13T00:06:03.231Z,99536.34
2018-08-13T00:08:32.141Z,99528.79
2018-08-13T00:11:00.775Z,99530.14
2018-08-13T00:13:29.788Z,99526.88
2018-08-13T00:15:58.654Z,99530.95
2018-08-13T00:18:27.311Z,99529.84
2018-08-13T00:20:56.344Z,99525.23
2018-08-13T00:23:24.958Z,99528.46
2018-08-13T00:25:53.568Z,99528.46
2018-08-13T00:28:23.010Z,99523.03
2018-08-13T00:30:51.689Z,99523.03
2018-08-13T00:33:20.286Z,99523.00
2018-08-13T00:35:48.919Z,99522.73
2018-08-13T00:38:17.558Z,99523.00
2018-08-13T00:40:47.387Z,99512.19
2018-08-13T00:43:16.214Z,99510.83
2018-08-13T00:45:44.850Z,99511.91
2018-08-13T00:48:13.444Z,99513.54
2018-08-13T00:50:42.099Z,99511.67
2018-08-13T00:53:10.810Z,99513.30
2018-08-13T00:55:39.453Z,99508.38
2018-08-13T00:58:08.100Z,99506.21
2018-08-13T01:00:36.770Z,99506.78
2018-08-13T01:03:06.446Z,99504.08
2018-08-13T01:05:36.073Z,99503.51
2018-08-13T01:08:04.840Z,99505.34
2018-08-13T01:10:33.873Z,99501.28
2018-08-13T01:13:02.729Z,99506.39
2018-08-13T01:15:31.347Z,99501.25
2018-08-13T01:18:00.642Z,99495.58
2018-08-13T01:20:29.368Z,99497.74
2018-08-13T01:22:58.092Z,99490.20
2018-08-13T01:25:27.093Z,99485.34
2018-08-13T01:27:55.971Z,99489.13
2018-08-13T01:30:24.980Z,99481.25
2018-08-13T01:32:53.649Z,99476.36
2018-08-13T01:35:22.424Z,99478.79
2018-08-13T01:37:51.026Z,99477.95
2018-08-13T01:40:19.621Z,99476.02
2018-08-13T01:42:48.324Z,99475.35
2018-08-13T01:45:16.942Z,99477.20
2018-08-13T01:47:45.650Z,99469.95
2018-08-13T01:50:14.269Z,99472.64
2018-08-13T01:52:43.159Z,99466.70
2018-08-13T01:55:12.397Z,99463.70
2018-08-13T01:57:41.008Z,99458.55
2018-08-13T02:00:14.747Z,99456.12
2018-08-13T02:02:43.690Z,99460.89
2018-08-13T02:05:12.303Z,99462.30
2018-08-13T02:07:40.981Z,99456.88
2018-08-13T02:10:11.472Z,99457.02
2018-08-13T02:12:40.465Z,99459.39
2018-08-13T02:15:09.744Z,99462.89
2018-08-13T02:17:38.432Z,99462.34
2018-08-13T02:20:08.230Z,99461.27
2018-08-13T02:22:37.225Z,99455.06
2018-08-13T02:25:06.936Z,99457.83
2018-08-13T02:27:35.629Z,99455.20
2018-08-13T02:30:06.274Z,99461.86
2018-08-13T02:32:34.907Z,99455.61
2018-08-13T02:35:03.596Z,99453.67
2018-08-13T02:37:32.910Z,99457.22
2018-08-13T02:40:01.601Z,99459.34
2018-08-13T02:42:30.643Z,99463.63
2018-08-13T02:44:59.608Z,99458.98
2018-08-13T02:47:28.219Z,99462.98
2018-08-13T02:49:56.894Z,99462.22
2018-08-13T02:52:25.790Z,99454.75
2018-08-13T02:54:54.669Z,99453.61
2018-08-13T02:57:23.465Z,99453.30
2018-08-13T02:59:52.133Z,99450.07
2018-08-13T03:02:21.584Z,99449.42
2018-08-13T03:04:50.683Z,99449.61
2018-08-13T03:07:19.432Z,99451.69
2018-08-13T03:09:48.093Z,99447.83
2018-08-13T03:12:16.711Z,99441.27
2018-08-13T03:14:45.371Z,99437.69
2018-08-13T03:17:14.037Z,99436.59
2018-08-13T03:19:43.022Z,99436.68
2018-08-13T03:22:11.662Z,99429.60
2018-08-13T03:24:40.368Z,99435.45
2018-08-13T03:27:09.088Z,99432.90
2018-08-13T03:29:37.732Z,99436.32
2018-08-13T03:32:06.372Z,99441.14
2018-08-13T03:34:35.355Z,99435.20
2018-08-13T03:37:04.005Z,99430.83
2018-08-13T03:39:32.777Z,99425.41
2018-08-13T03:42:01.445Z,99426.16
2018-08-13T03:44:30.056Z,99435.02
2018-08-13T03:46:58.688Z,99435.84
2018-08-13T03:49:27.483Z,99428.38
2018-08-13T03:51:56.140Z,99428.69
2018-08-13T03:54:25.097Z,99424.81
2018-08-13T03:56:53.820Z,99420.95
2018-08-13T03:59:22.884Z,99417.20
2018-08-13T04:01:51.500Z,99419.84
2018-08-13T04:04:20.245Z,99427.56
2018-08-13T04:06:48.859Z,99425.05
2018-08-13T04:09:17.478Z,99424.73
2018-08-13T04:11:46.109Z,99423.10
2018-08-13T04:14:15.019Z,99415.08
2018-08-13T04:16:48.088Z,99419.70
2018-08-13T04:19:16.720Z,99419.63
2018-08-13T04:21:45.356Z,99418.48
2018-08-13T04:24:14.362Z,99422.11
2018-08-13T04:26:43.021Z,99418.78
2018-08-13T04:29:11.685Z,99412.12
2018-08-13T04:31:40.308Z,99412.18
2018-08-13T04:34:09.045Z,99411.98
2018-08-13T04:36:37.669Z,99413.67
2018-08-13T04:39:10.008Z,99412.80
2018-08-13T04:41:38.738Z,99417.42
2018-08-13T04:44:07.696Z,99415.58
2018-08-13T04:46:36.366Z,99410.80
2018-08-13T04:49:05.128Z,99408.72
2018-08-13T04:51:34.121Z,99416.09
2018-08-13T04:54:02.804Z,99407.76
2018-08-13T04:56:31.432Z,99412.40
2018-08-13T04:59:00.861Z,99421.89
2018-08-13T05:01:29.622Z,99418.63
2018-08-13T05:03:58.736Z,99413.99
2018-08-13T05:06:27.678Z,99418.25
2018-08-13T05:08:56.349Z,99411.27
2018-08-13T05:11:24.948Z,99407.16
2018-08-13T05:13:53.564Z,99408.77
2018-08-13T05:16:22.543Z,99410.61
2018-08-13T05:18:51.177Z,99404.89
2018-08-13T05:21:20.473Z,99401.50
2018-08-13T05:23:49.849Z,99403.00
2018-08-13T05:26:19.257Z,99400.22
2018-08-13T05:28:48.447Z,99401.36
2018-08-13T05:31:17.711Z,99404.23
2018-08-13T05:33:46.942Z,99401.55
2018-08-13T05:36:16.143Z,99393.67
2018-08-13T05:38:45.375Z,99398.27
2018-08-13T05:41:14.964Z,99390.87
2018-08-13T05:43:44.252Z,99400.83
2018-08-13T05:46:13.474Z,99395.57
2018-08-13T05:48:42.793Z,99388.27
2018-08-13T05:51:12.877Z,99381.54
2018-08-13T05:53:42.105Z,99386.44
2018-08-13T05:56:11.340Z,99380.66
2018-08-13T05:58:40.553Z,99378.05
2018-08-13T06:01:09.757Z,99376.80
2018-08-13T06:03:38.964Z,99382.47
2018-08-13T06:06:08.252Z,99381.38
2018-08-13T06:08:37.520Z,99377.06
2018-08-13T06:11:06.737Z,99376.78
2018-08-13T06:13:36.145Z,99373.33
2018-08-13T06:16:05.940Z,99374.45
2018-08-13T06:18:35.143Z,99371.69
2018-08-13T06:21:04.461Z,99374.21
2018-08-13T06:23:33.667Z,99374.67
2018-08-13T06:26:02.895Z,99374.21
2018-08-13T06:28:32.092Z,99373.48
2018-08-13T06:31:01.311Z,99369.98
2018-08-13T06:33:30.623Z,99381.66
2018-08-13T06:35:59.562Z,99375.91
2018-08-13T06:38:28.728Z,99378.89
2018-08-13T06:40:58.176Z,99375.89
2018-08-13T06:43:27.091Z,99375.27
2018-08-13T06:45:56.069Z,99374.23
2018-08-13T06:48:25.657Z,99374.87
2018-08-13T06:50:54.584Z,99377.69
2018-08-13T06:53:23.705Z,99377.16
2018-08-13T06:55:52.645Z,99368.49
2018-08-13T06:58:22.212Z,99372.94
2018-08-13T07:00:51.613Z,99364.07
2018-08-13T07:03:20.746Z,99360.97
2018-08-13T07:05:49.749Z,99375.64
2018-08-13T07:08:18.965Z,99372.73
2018-08-13T07:10:48.047Z,99369.72
2018-08-13T07:13:17.021Z,99377.89
2018-08-13T07:15:46.322Z,99372.33
2018-08-13T07:18:15.465Z,99373.01
2018-08-13T07:20:44.415Z,99366.98
2018-08-13T07:23:13.391Z,99369.84
2018-08-13T07:25:42.621Z,99362.33
2018-08-13T07:28:11.562Z,99367.63
2018-08-13T07:30:40.822Z,99365.80
2018-08-13T07:33:09.788Z,99368.00
2018-08-13T07:35:38.772Z,99355.73
2018-08-13T07:38:07.727Z,99355.38
2018-08-13T07:40:36.760Z,99357.78
2018-08-13T07:43:06.074Z,99359.83
2018-08-13T07:45:35.695Z,99355.86
2018-08-13T07:48:05.096Z,99359.42
2018-08-13T07:50:34.366Z,99361.41
2018-08-13T07:53:03.290Z,99358.66
2018-08-13T07:55:32.326Z,99352.34
2018-08-13T07:58:01.599Z,99348.77
2018-08-13T08:00:30.924Z,99351.39
2018-08-13T08:02:59.869Z,99341.84
2018-08-13T08:05:28.848Z,99339.27
2018-08-13T08:07:57.879Z,99344.25
2018-08-13T08:10:26.828Z,99343.76
2018-08-13T08:12:56.080Z,99343.30
2018-08-13T08:15:25.140Z,99334.33
2018-08-13T08:17:54.057Z,99340.58
2018-08-13T08:20:23.190Z,99336.82
2018-08-13T08:22:52.153Z,99335.59
2018-08-13T08:25:22.416Z,99335.66
2018-08-13T08:27:51.373Z,99343.55
2018-08-13T08:30:20.461Z,99340.67
2018-08-13T08:32:50.200Z,99342.00
2018-08-13T08:35:19.183Z,99342.84
2018-08-13T08:37:48.227Z,99338.75
2018-08-13T08:40:19.236Z,99344.96
2018-08-13T08:42:48.862Z,99335.41
2018-08-13T08:45:21.920Z,99335.75
2018-08-13T08:47:51.729Z,99334.89
2018-08-13T08:50:20.770Z,99332.89
2018-08-13T08:52:49.787Z,99338.23
2018-08-13T08:55:19.375Z,99338.99
2018-08-13T08:57:49.528Z,99336.31
2018-08-13T09:00:20.083Z,99334.98
2018-08-13T09:02:49.134Z,99330.83
2018-08-13T09:05:18.076Z,99332.64
2018-08-13T09:07:47.303Z,99315.78
2018-08-13T09:10:16.513Z,99326.14
2018-08-13T09:12:45.555Z,99319.98
2018-08-13T09:15:16.195Z,99314.99
2018-08-13T09:17:57.416Z,99314.09
2018-08-13T09:20:37.515Z,99318.38
2018-08-13T09:23:17.732Z,99313.47
2018-08-13T09:25:57.799Z,99297.77
2018-08-13T09:28:37.999Z,99300.01
2018-08-13T09:31:25.438Z,99301.69
2018-08-13T09:34:05.612Z,99299.86
2018-08-13T09:36:34.927Z,99298.78
2018-08-13T09:39:04.848Z,99290.58
2018-08-13T09:41:34.837Z,99288.98
2018-08-13T09:44:04.167Z,99283.80
2018-08-13T09:46:33.743Z,99287.47
2018-08-13T09:49:03.034Z,99283.44
2018-08-13T09:51:32.287Z,99281.81
2018-08-13T09:54:01.506Z,99287.96
2018-08-13T09:56:30.758Z,99279.16
2018-08-13T09:59:00.012Z,99280.41
2018-08-13T10:01:29.331Z,99274.66
2018-08-13T10:03:58.570Z,99277.48
2018-08-13T10:06:28.128Z,99270.34
2018-08-13T10:08:57.325Z,99267.00
2018-08-13T10:11:26.523Z,99266.44
2018-08-13T10:13:55.763Z,99265.15
2018-08-13T10:16:25.048Z,99262.97
2018-08-13T10:18:54.241Z,99264.16
2018-08-13T10:21:23.981Z,99264.20
2018-08-13T10:23:53.228Z,99261.33
2018-08-13T10:26:22.607Z,99253.89
2018-08-13T10:28:51.799Z,99246.81
2018-08-13T10:31:21.252Z,99254.56
2018-08-13T10:33:50.456Z,99248.85
2018-08-13T10:36:19.649Z,99244.08
2018-08-13T10:38:48.896Z,99237.09
2018-08-13T10:41:18.912Z,99234.95
2018-08-13T10:43:48.090Z,99235.37
2018-08-13T10:46:17.796Z,99231.11
2018-08-13T10:48:47.105Z,99235.38
2018-08-13T10:51:16.358Z,99234.76
2018-08-13T10:53:45.625Z,99236.06
2018-08-13T10:56:14.875Z,99235.84
2018-08-13T10:58:44.395Z,99229.91
2018-08-13T11:01:14.243Z,99225.75
2018-08-13T11:03:43.576Z,99215.37
2018-08-13T11:06:13.050Z,99216.16
2018-08-13T11:08:42.262Z,99217.55
2018-08-13T11:11:11.480Z,99211.23
2018-08-13T11:13:40.674Z,99214.98
2018-08-13T11:16:09.897Z,99209.05
2018-08-13T11:18:39.094Z,99208.81
2018-08-13T11:21:08.318Z,99205.67
2018-08-13T11:23:37.618Z,99207.31
2018-08-13T11:26:07.064Z,99206.75
2018-08-13T11:28:36.399Z,99203.63
2018-08-13T11:31:06.349Z,99196.73
2018-08-13T11:33:35.866Z,99198.00
2018-08-13T11:36:05.109Z,99196.83
2018-08-13T11:38:34.335Z,99201.30
2018-08-13T11:41:04.719Z,99200.89
2018-08-13T11:43:34.288Z,99200.48
2018-08-13T11:46:03.552Z,99197.14
2018-08-13T11:48:33.180Z,99197.28
2018-08-13T11:51:02.740Z,99189.32
2018-08-13T11:53:31.917Z,99190.38
2018-08-13T11:56:01.133Z,99187.71
2018-08-13T11:58:30.353Z,99184.65
2018-08-13T12:00:59.584Z,99185.56
2018-08-13T12:03:28.963Z,99172.70
2018-08-13T12:05:58.185Z,99172.28
2018-08-13T12:08:27.708Z,99170.31
2018-08-13T12:10:57.108Z,99159.64
2018-08-13T12:13:26.441Z,99162.86
2018-08-13T12:15:55.665Z,99161.19
2018-08-13T12:18:25.121Z,99158.56
2018-08-13T12:20:54.301Z,99158.26
2018-08-13T12:23:23.713Z,99155.34
2018-08-13T12:25:52.944Z,99159.61
2018-08-13T12:28:22.194Z,99161.03
2018-08-13T12:30:51.381Z,99147.48
2018-08-13T12:33:20.585Z,99149.01
2018-08-13T12:35:50.032Z,99147.77
2018-08-13T12:38:19.334Z,99138.08
2018-08-13T12:40:48.541Z,99139.02
2018-08-13T12:43:18.206Z,99133.80
2018-08-13T12:45:47.459Z,99131.44
2018-08-13T12:48:16.641Z,99130.80
2018-08-13T12:50:45.901Z,99118.16
2018-08-13T12:53:15.108Z,99122.98
2018-08-13T12:55:44.288Z,99125.81
2018-08-13T12:58:13.509Z,99125.28
2018-08-13T13:00:42.830Z,99123.92
2018-08-13T13:03:12.064Z,99111.45
2018-08-13T13:05:41.237Z,99109.14
2018-08-13T13:08:10.455Z,99102.23
2018-08-13T13:10:39.621Z,99109.42
2018-08-13T13:13:08.845Z,99112.47
2018-08-13T13:15:38.084Z,99096.25
2018-08-13T13:18:07.328Z,99095.50
2018-08-13T13:20:36.594Z,99094.58
2018-08-13T13:23:05.947Z,99090.08
2018-08-13T13:25:35.144Z,99083.15
2018-08-13T13:28:04.469Z,99077.13
2018-08-13T13:30:33.999Z,99076.55
2018-08-13T13:33:03.226Z,99073.53
2018-08-13T13:35:32.397Z,99065.15
2018-08-13T13:38:01.747Z,99060.31
2018-08-13T13:40:31.048Z,99063.64
2018-08-13T13:43:00.700Z,99057.96
2018-08-13T13:45:29.876Z,99060.59
2018-08-13T13:47:59.052Z,99057.48
2018-08-13T13:50:28.233Z,99063.47
2018-08-13T13:52:57.461Z,99054.58
2018-08-13T13:55:26.929Z,99058.33
2018-08-13T13:57:56.110Z,99054.38
2018-08-13T14:00:25.379Z,99052.41
2018-08-13T14:02:54.586Z,99057.80
2018-08-13T14:08:10.232Z,99047.34
2018-08-13T14:10:39.503Z,99040.24
2018-08-13T14:13:08.703Z,99041.30
2018-08-13T14:15:38.148Z,99043.81
2018-08-13T14:18:07.371Z,99044.62
2018-08-13T14:20:36.914Z,99034.36
2018-08-13T14:23:06.217Z,99039.80
2018-08-13T14:25:35.405Z,99038.41
2018-08-13T14:28:04.716Z,99036.83
2018-08-13T14:30:34.165Z,99032.08
2018-08-13T14:33:04.141Z,99026.25
2018-08-13T14:35:33.380Z,99037.72
2018-08-13T14:38:02.612Z,99032.77
2018-08-13T14:40:32.223Z,99029.56
2018-08-13T14:43:01.815Z,99026.29
2018-08-13T14:45:31.344Z,99026.02
2018-08-13T14:48:00.663Z,99028.98
2018-08-13T14:50:29.993Z,99027.98
2018-08-13T14:52:59.577Z,99021.23
2018-08-13T14:55:28.921Z,99016.89
2018-08-13T14:57:58.212Z,99003.23
2018-08-13T15:00:34.847Z,99005.44
2018-08-13T15:03:04.400Z,98996.92
2018-08-13T15:05:33.827Z,99003.10
2018-08-13T15:08:03.684Z,98992.77
2018-08-13T15:10:32.928Z,98996.13
2018-08-13T15:13:02.307Z,98991.55
2018-08-13T15:15:31.695Z,98986.34
2018-08-13T15:18:01.072Z,98990.64
2018-08-13T15:20:31.621Z,98989.82
2018-08-13T15:23:00.919Z,98986.84
2018-08-13T15:25:30.428Z,98979.55
2018-08-13T15:27:59.859Z,98982.51
2018-08-13T15:30:29.208Z,98979.33
2018-08-13T15:32:58.523Z,98974.72
2018-08-13T15:35:27.760Z,98972.11
2018-08-13T15:37:56.938Z,98971.28
2018-08-13T15:40:26.191Z,98971.28
2018-08-13T15:42:55.466Z,98972.95
2018-08-13T15:45:25.278Z,98968.39
2018-08-13T15:47:54.643Z,98960.08
2018-08-13T15:50:24.489Z,98957.23
2018-08-13T15:52:53.794Z,98958.78
2018-08-13T15:55:23.396Z,98961.70
2018-08-13T15:57:52.821Z,98960.30
2018-08-13T16:00:25.154Z,98952.16
2018-08-13T16:02:54.516Z,98949.58
2018-08-13T16:05:23.956Z,98950.70
2018-08-13T16:07:53.708Z,98940.52
2018-08-13T16:10:23.072Z,98945.80
2018-08-13T16:12:52.367Z,98944.53
2018-08-13T16:15:22.034Z,98936.67
2018-08-13T16:17:51.560Z,98937.03
2018-08-13T16:20:20.796Z,98932.31
2018-08-13T16:22:50.276Z,98932.08
2018-08-13T16:25:20.208Z,98920.80
2018-08-13T16:27:49.488Z,98923.16
2018-08-13T16:30:21.291Z,98921.77
2018-08-13T16:32:50.685Z,98914.48
2018-08-13T16:35:20.322Z,98912.71
2018-08-13T16:37:49.877Z,98912.51
2018-08-13T16:40:19.780Z,98912.68
2018-08-13T16:42:49.692Z,98905.09
2018-08-13T16:45:20.064Z,98908.17
2018-08-13T16:47:49.425Z,98901.06
2018-08-13T16:50:32.158Z,98898.61
2018-08-13T16:53:02.002Z,98896.61
2018-08-13T16:55:32.676Z,98900.06
2018-08-13T16:58:02.656Z,98898.68
2018-08-13T17:00:32.765Z,98890.45
2018-08-13T17:03:02.682Z,98894.20
2018-08-13T17:05:58.561Z,98889.24
2018-08-13T17:08:27.860Z,98881.76
2018-08-13T17:11:16.006Z,98889.88
2018-08-13T17:13:45.324Z,98887.28
2018-08-13T17:16:14.563Z,98890.50
2018-08-13T17:18:43.788Z,98890.26
2018-08-13T17:21:13.240Z,98886.02
2018-08-13T17:23:42.544Z,98893.50
2018-08-13T17:26:12.101Z,98899.41
2018-08-13T17:28:41.340Z,98892.24
2018-08-13T17:31:10.873Z,98893.98
2018-08-13T17:33:40.047Z,98897.73
2018-08-13T17:36:09.249Z,98895.72
2018-08-13T17:38:38.518Z,98904.34
2018-08-13T17:41:09.065Z,98894.33
2018-08-13T17:43:38.317Z,98900.55
2018-08-13T17:46:07.975Z,98902.17
2018-08-13T17:48:37.292Z,98899.97
2018-08-13T17:51:06.648Z,98898.59
2018-08-13T17:53:36.052Z,98904.46
2018-08-13T17:56:05.350Z,98901.00
2018-08-13T17:58:34.645Z,98908.11
2018-08-13T18:01:04.017Z,98899.90
2018-08-13T18:03:33.262Z,98901.00
2018-08-13T18:06:02.556Z,98907.47
2018-08-13T18:08:31.775Z,98908.48
2018-08-13T18:11:00.989Z,98908.97
2018-08-13T18:13:30.846Z,98915.42
2018-08-13T18:16:00.082Z,98908.00
2018-08-13T18:18:29.575Z,98909.36
2018-08-13T18:20:58.838Z,98917.77
2018-08-13T18:23:28.029Z,98920.34
2018-08-13T18:25:57.752Z,98919.08
2018-08-13T18:28:27.378Z,98922.59
2018-08-13T18:30:56.621Z,98917.45
2018-08-13T18:33:25.987Z,98920.79
2018-08-13T18:35:55.276Z,98926.47
2018-08-13T18:38:24.791Z,98920.75
2018-08-13T18:40:54.137Z,98930.62
2018-08-13T18:43:23.465Z,98933.87
2018-08-13T18:45:52.666Z,98933.66
2018-08-13T18:48:21.866Z,98938.14
2018-08-13T18:50:51.086Z,98926.59
2018-08-13T18:53:20.283Z,98925.13
2018-08-13T18:55:49.892Z,98926.04
2018-08-13T18:58:19.123Z,98929.86
2018-08-13T19:00:51.685Z,98927.84
2018-08-13T19:03:21.252Z,98929.69
2018-08-13T19:05:50.541Z,98929.59
2018-08-13T19:08:19.783Z,98925.16
2018-08-13T19:10:49.057Z,98932.05
2018-08-13T19:13:18.336Z,98929.31
2018-08-13T19:16:02.810Z,98925.46
2018-08-13T19:18:32.240Z,98928.45
2018-08-13T19:21:01.552Z,98926.28
2018-08-13T19:23:30.800Z,98931.02
2018-08-13T19:26:00.023Z,98920.84
2018-08-13T19:28:29.199Z,98914.10
2018-08-13T19:30:58.728Z,98914.77
2018-08-13T19:33:27.975Z,98908.17
2018-08-13T19:35:57.458Z,98917.18
2018-08-13T19:38:26.982Z,98916.52
2018-08-13T19:40:56.193Z,98915.94
2018-08-13T19:43:25.725Z,98918.94
2018-08-13T19:45:54.957Z,98919.27
2018-08-13T19:48:24.478Z,98915.27
2018-08-13T19:50:53.708Z,98918.94
2018-08-13T19:53:22.995Z,98920.22
2018-08-13T19:55:52.221Z,98918.97
2018-08-13T19:58:21.748Z,98919.64
2018-08-13T20:00:50.988Z,98926.27
2018-08-13T20:03:20.560Z,98918.95
2018-08-13T20:05:49.752Z,98925.38
2018-08-13T20:08:19.008Z,98914.74
2018-08-13T20:10:48.666Z,98916.79
2018-08-13T20:13:17.956Z,98915.87
2018-08-13T20:15:47.208Z,98919.89
2018-08-13T20:18:16.457Z,98910.03
2018-08-13T20:20:45.767Z,98913.92
2018-08-13T20:23:15.019Z,98914.84
2018-08-13T20:25:44.248Z,98927.30
2018-08-13T20:28:13.512Z,98979.47
2018-08-13T20:30:43.193Z,98963.69
2018-08-13T20:33:12.390Z,98944.81
2018-08-13T20:35:41.727Z,98955.51
2018-08-13T20:38:10.998Z,98952.75
2018-08-13T20:40:40.226Z,98955.59
2018-08-13T20:43:09.794Z,98951.48
2018-08-13T20:45:39.006Z,98956.37
2018-08-13T20:48:08.302Z,98953.63
2018-08-13T20:50:37.975Z,98949.52
2018-08-13T20:53:07.192Z,98945.06
2018-08-13T20:55:36.401Z,98958.64
2018-08-13T20:58:05.654Z,98967.89
2018-08-13T21:00:35.183Z,98968.44
2018-08-13T21:03:04.516Z,98975.69
2018-08-13T21:05:33.742Z,98985.70
2018-08-13T21:08:02.970Z,98990.61
2018-08-13T21:10:32.196Z,98998.80
2018-08-13T21:13:01.739Z,99000.70
2018-08-13T21:15:30.981Z,99004.07
2018-08-13T21:18:00.184Z,99006.58
2018-08-13T21:20:29.950Z,99014.52
2018-08-13T21:22:59.548Z,99026.11
2018-08-13T21:25:28.809Z,99036.24
2018-08-13T21:27:58.513Z,99036.78
2018-08-13T21:30:27.717Z,99037.69
2018-08-13T21:32:56.896Z,99042.84
2018-08-13T21:35:26.861Z,99041.16
2018-08-13T21:37:56.120Z,99057.45
2018-08-13T21:40:25.631Z,99056.26
2018-08-13T21:42:54.883Z,99065.38
2018-08-13T21:45:24.336Z,99077.86
2018-08-13T21:47:53.849Z,99093.24
2018-08-13T21:50:23.921Z,99099.45
2018-08-13T21:52:53.562Z,99091.83
2018-08-13T21:55:22.877Z,99097.31
2018-08-13T21:57:52.347Z,99087.13
2018-08-13T22:00:26.384Z,99085.20
2018-08-13T22:02:56.288Z,99093.34
2018-08-13T22:05:25.864Z,99094.84
2018-08-13T22:07:55.658Z,99101.39
2018-08-13T22:10:25.401Z,99105.00
2018-08-13T22:12:54.704Z,99101.98
2018-08-13T22:15:28.794Z,99106.14
2018-08-13T22:17:59.579Z,99123.27
2018-08-13T22:20:29.939Z,99127.61
2018-08-13T22:23:00.246Z,99134.98
2018-08-13T22:25:31.331Z,99130.38
2018-08-13T22:28:00.766Z,99135.75
2018-08-13T22:30:31.726Z,99132.17
2018-08-13T22:33:00.990Z,99133.38
2018-08-13T22:35:30.211Z,99128.64
2018-08-13T22:37:59.529Z,99130.91
2018-08-13T22:40:28.802Z,99135.83
2018-08-13T22:42:58.015Z,99148.16
2018-08-13T22:45:27.277Z,99144.06
2018-08-13T22:47:56.477Z,99146.36
2018-08-13T22:50:26.171Z,99143.70
2018-08-13T22:52:55.644Z,99160.69
2018-08-13T22:55:25.301Z,99159.16
2018-08-13T22:57:54.579Z,99163.48
2018-08-13T23:00:24.839Z,99167.43
2018-08-13T23:02:54.078Z,99165.28
2018-08-13T23:05:25.473Z,99169.89
2018-08-13T23:07:54.770Z,99155.53
2018-08-13T23:10:25.015Z,99133.84
2018-08-13T23:12:55.790Z,99121.78
2018-08-13T23:15:25.485Z,99109.56
2018-08-13T23:17:55.197Z,99109.63
2018-08-13T23:20:27.804Z,99106.67
2018-08-13T23:23:00.252Z,99101.36
2018-08-13T23:25:30.326Z,99078.65
2018-08-13T23:28:00.802Z,99071.44
2018-08-13T23:30:30.216Z,99067.91
2018-08-13T23:32:59.824Z,99068.78
2018-08-13T23:35:29.857Z,99058.48
2018-08-13T23:37:58.652Z,99052.85
2018-08-13T23:40:27.483Z,99065.30
2018-08-13T23:42:56.387Z,99072.58
2018-08-13T23:45:26.564Z,99086.03
2018-08-13T23:47:55.669Z,99102.61
2018-08-13T23:50:26.173Z,99117.59
2018-08-13T23:52:57.638Z,99142.75
2018-08-13T23:55:38.351Z,99149.67
2018-08-13T23:58:14.922Z,99157.30
